sensor_id;sensor_type;location;lat;lon;timestamp;P1;durP1;ratioP1;P2;durP2;ratioP2
48975;SDS011;34791;52.752;8.346;2022-12-18T00:01:38;76.60;;;24.50;;
48975;SDS011;34791;52.752;8.346;2022-12-18T00:04:04;72.00;;;24.47;;
48975;SDS011;34791;52.752;8.346;2022-12-18T00:06:31;73.53;;;24.37;;
48975;SDS011;34791;52.752;8.346;2022-12-18T00:08:57;72.20;;;22.87;;
48975;SDS011;34791;52.752;8.346;2022-12-18T00:11:26;85.67;;;23.53;;
48975;SDS011;34791;52.752;8.346;2022-12-18T00:13:54;69.93;;;23.13;;
48975;SDS011;34791;52.752;8.346;2022-12-18T00:16:21;75.50;;;24.87;;
48975;SDS011;34791;52.752;8.346;2022-12-18T00:18:49;91.20;;;26.53;;
48975;SDS011;34791;52.752;8.346;2022-12-18T00:21:16;66.50;;;22.00;;
48975;SDS011;34791;52.752;8.346;2022-12-18T00:23:42;67.63;;;22.10;;
48975;SDS011;34791;52.752;8.346;2022-12-18T00:26:16;65.50;;;21.83;;
48975;SDS011;34791;52.752;8.346;2022-12-18T00:28:43;74.13;;;23.10;;
48975;SDS011;34791;52.752;8.346;2022-12-18T00:31:10;74.10;;;22.27;;
48975;SDS011;34791;52.752;8.346;2022-12-18T00:33:40;70.72;;;23.13;;
48975;SDS011;34791;52.752;8.346;2022-12-18T00:36:08;64.30;;;22.33;;
48975;SDS011;34791;52.752;8.346;2022-12-18T00:38:36;80.17;;;25.47;;
48975;SDS011;34791;52.752;8.346;2022-12-18T00:41:02;77.57;;;24.63;;
48975;SDS011;34791;52.752;8.346;2022-12-18T00:43:28;72.97;;;23.93;;
48975;SDS011;34791;52.752;8.346;2022-12-18T00:45:53;67.50;;;22.60;;
48975;SDS011;34791;52.752;8.346;2022-12-18T00:48:19;67.63;;;24.20;;
48975;SDS011;34791;52.752;8.346;2022-12-18T00:50:44;76.20;;;24.73;;
48975;SDS011;34791;52.752;8.346;2022-12-18T00:53:10;73.33;;;25.13;;
48975;SDS011;34791;52.752;8.346;2022-12-18T00:55:39;77.67;;;25.27;;
48975;SDS011;34791;52.752;8.346;2022-12-18T00:58:05;71.37;;;23.63;;
48975;SDS011;34791;52.752;8.346;2022-12-18T01:00:30;73.53;;;24.90;;
48975;SDS011;34791;52.752;8.346;2022-12-18T01:02:56;74.00;;;25.17;;
48975;SDS011;34791;52.752;8.346;2022-12-18T01:05:21;69.47;;;24.80;;
48975;SDS011;34791;52.752;8.346;2022-12-18T01:07:47;72.50;;;23.83;;
48975;SDS011;34791;52.752;8.346;2022-12-18T01:10:12;67.80;;;24.40;;
48975;SDS011;34791;52.752;8.346;2022-12-18T01:12:38;75.90;;;25.20;;
48975;SDS011;34791;52.752;8.346;2022-12-18T01:15:05;71.67;;;23.13;;
48975;SDS011;34791;52.752;8.346;2022-12-18T01:17:31;73.40;;;23.30;;
48975;SDS011;34791;52.752;8.346;2022-12-18T01:19:57;72.73;;;24.13;;
48975;SDS011;34791;52.752;8.346;2022-12-18T01:22:23;75.30;;;24.63;;
48975;SDS011;34791;52.752;8.346;2022-12-18T01:24:48;73.70;;;24.10;;
48975;SDS011;34791;52.752;8.346;2022-12-18T01:27:13;69.30;;;23.57;;
48975;SDS011;34791;52.752;8.346;2022-12-18T01:29:39;71.57;;;23.20;;
48975;SDS011;34791;52.752;8.346;2022-12-18T01:32:04;69.67;;;23.73;;
48975;SDS011;34791;52.752;8.346;2022-12-18T01:34:30;76.40;;;23.00;;
48975;SDS011;34791;52.752;8.346;2022-12-18T01:36:55;76.30;;;23.93;;
48975;SDS011;34791;52.752;8.346;2022-12-18T01:39:20;73.27;;;23.27;;
48975;SDS011;34791;52.752;8.346;2022-12-18T01:41:46;56.43;;;20.80;;
48975;SDS011;34791;52.752;8.346;2022-12-18T01:50:08;61.13;;;21.37;;
48975;SDS011;34791;52.752;8.346;2022-12-18T01:52:43;59.93;;;21.00;;
48975;SDS011;34791;52.752;8.346;2022-12-18T01:55:11;73.70;;;24.17;;
48975;SDS011;34791;52.752;8.346;2022-12-18T01:57:40;71.90;;;23.37;;
48975;SDS011;34791;52.752;8.346;2022-12-18T02:00:08;61.10;;;23.20;;
48975;SDS011;34791;52.752;8.346;2022-12-18T02:02:35;74.17;;;22.60;;
48975;SDS011;34791;52.752;8.346;2022-12-18T02:05:02;73.73;;;24.73;;
48975;SDS011;34791;52.752;8.346;2022-12-18T02:15:44;63.73;;;23.10;;
48975;SDS011;34791;52.752;8.346;2022-12-18T02:18:38;74.00;;;25.70;;
48975;SDS011;34791;52.752;8.346;2022-12-18T02:24:17;69.63;;;25.43;;
48975;SDS011;34791;52.752;8.346;2022-12-18T02:26:56;69.47;;;24.40;;
48975;SDS011;34791;52.752;8.346;2022-12-18T02:29:29;73.37;;;24.40;;
48975;SDS011;34791;52.752;8.346;2022-12-18T02:32:00;66.07;;;24.23;;
48975;SDS011;34791;52.752;8.346;2022-12-18T02:34:31;66.33;;;24.07;;
48975;SDS011;34791;52.752;8.346;2022-12-18T02:37:00;68.13;;;24.60;;
48975;SDS011;34791;52.752;8.346;2022-12-18T02:39:29;62.70;;;23.60;;
48975;SDS011;34791;52.752;8.346;2022-12-18T02:41:57;68.47;;;22.30;;
48975;SDS011;34791;52.752;8.346;2022-12-18T02:44:24;65.17;;;23.50;;
48975;SDS011;34791;52.752;8.346;2022-12-18T02:46:50;63.20;;;24.30;;
48975;SDS011;34791;52.752;8.346;2022-12-18T02:55:08;60.23;;;23.97;;
48975;SDS011;34791;52.752;8.346;2022-12-18T02:57:54;54.53;;;20.63;;
48975;SDS011;34791;52.752;8.346;2022-12-18T03:00:23;59.17;;;22.47;;
48975;SDS011;34791;52.752;8.346;2022-12-18T03:03:12;59.00;;;23.13;;
48975;SDS011;34791;52.752;8.346;2022-12-18T03:05:47;57.80;;;21.97;;
48975;SDS011;34791;52.752;8.346;2022-12-18T03:08:18;54.57;;;21.97;;
48975;SDS011;34791;52.752;8.346;2022-12-18T03:11:06;55.13;;;21.17;;
48975;SDS011;34791;52.752;8.346;2022-12-18T03:13:45;60.27;;;21.40;;
48975;SDS011;34791;52.752;8.346;2022-12-18T03:16:22;54.47;;;18.53;;
48975;SDS011;34791;52.752;8.346;2022-12-18T03:18:54;46.97;;;19.17;;
48975;SDS011;34791;52.752;8.346;2022-12-18T03:21:25;39.85;;;16.15;;
48975;SDS011;34791;52.752;8.346;2022-12-18T03:23:54;50.07;;;19.83;;
48975;SDS011;34791;52.752;8.346;2022-12-18T03:26:22;56.23;;;21.93;;
48975;SDS011;34791;52.752;8.346;2022-12-18T03:28:51;54.70;;;22.37;;
48975;SDS011;34791;52.752;8.346;2022-12-18T03:31:22;62.08;;;22.50;;
48975;SDS011;34791;52.752;8.346;2022-12-18T03:33:52;52.50;;;21.50;;
48975;SDS011;34791;52.752;8.346;2022-12-18T03:36:19;53.63;;;19.08;;
48975;SDS011;34791;52.752;8.346;2022-12-18T03:38:45;50.03;;;19.57;;
48975;SDS011;34791;52.752;8.346;2022-12-18T03:44:11;43.40;;;17.97;;
48975;SDS011;34791;52.752;8.346;2022-12-18T03:46:38;49.90;;;18.13;;
48975;SDS011;34791;52.752;8.346;2022-12-18T03:49:22;53.40;;;20.67;;
48975;SDS011;34791;52.752;8.346;2022-12-18T03:52:01;49.30;;;20.70;;
48975;SDS011;34791;52.752;8.346;2022-12-18T03:54:31;56.33;;;21.53;;
48975;SDS011;34791;52.752;8.346;2022-12-18T03:57:01;54.27;;;21.00;;
48975;SDS011;34791;52.752;8.346;2022-12-18T04:02:08;50.70;;;17.00;;
48975;SDS011;34791;52.752;8.346;2022-12-18T04:04:35;49.37;;;18.33;;
48975;SDS011;34791;52.752;8.346;2022-12-18T04:07:03;45.90;;;18.87;;
48975;SDS011;34791;52.752;8.346;2022-12-18T04:09:29;43.27;;;18.43;;
48975;SDS011;34791;52.752;8.346;2022-12-18T04:11:56;45.20;;;18.43;;
48975;SDS011;34791;52.752;8.346;2022-12-18T04:14:22;39.70;;;16.33;;
48975;SDS011;34791;52.752;8.346;2022-12-18T04:16:47;49.50;;;18.10;;
48975;SDS011;34791;52.752;8.346;2022-12-18T04:19:12;35.57;;;14.97;;
48975;SDS011;34791;52.752;8.346;2022-12-18T04:21:38;40.73;;;17.13;;
48975;SDS011;34791;52.752;8.346;2022-12-18T04:24:03;52.50;;;17.83;;
48975;SDS011;34791;52.752;8.346;2022-12-18T04:26:29;46.60;;;18.17;;
48975;SDS011;34791;52.752;8.346;2022-12-18T04:28:55;66.60;;;22.23;;
48975;SDS011;34791;52.752;8.346;2022-12-18T04:31:20;50.53;;;19.67;;
48975;SDS011;34791;52.752;8.346;2022-12-18T04:33:46;44.90;;;18.53;;
48975;SDS011;34791;52.752;8.346;2022-12-18T04:36:11;42.53;;;18.53;;
48975;SDS011;34791;52.752;8.346;2022-12-18T04:38:37;43.63;;;17.87;;
48975;SDS011;34791;52.752;8.346;2022-12-18T04:41:03;42.80;;;17.03;;
48975;SDS011;34791;52.752;8.346;2022-12-18T04:43:28;39.67;;;16.87;;
48975;SDS011;34791;52.752;8.346;2022-12-18T04:46:00;37.30;;;16.20;;
48975;SDS011;34791;52.752;8.346;2022-12-18T04:48:30;38.50;;;15.27;;
48975;SDS011;34791;52.752;8.346;2022-12-18T04:50:55;43.43;;;17.47;;
48975;SDS011;34791;52.752;8.346;2022-12-18T04:53:21;40.17;;;17.03;;
48975;SDS011;34791;52.752;8.346;2022-12-18T04:55:46;41.47;;;17.73;;
48975;SDS011;34791;52.752;8.346;2022-12-18T04:58:12;39.23;;;16.37;;
48975;SDS011;34791;52.752;8.346;2022-12-18T05:00:37;38.63;;;16.43;;
48975;SDS011;34791;52.752;8.346;2022-12-18T05:03:02;39.73;;;15.47;;
48975;SDS011;34791;52.752;8.346;2022-12-18T05:05:28;41.50;;;17.47;;
48975;SDS011;34791;52.752;8.346;2022-12-18T05:07:53;37.43;;;15.13;;
48975;SDS011;34791;52.752;8.346;2022-12-18T05:10:19;38.43;;;15.27;;
48975;SDS011;34791;52.752;8.346;2022-12-18T05:12:44;36.17;;;14.47;;
48975;SDS011;34791;52.752;8.346;2022-12-18T05:15:28;27.30;;;12.30;;
48975;SDS011;34791;52.752;8.346;2022-12-18T05:17:55;35.03;;;14.27;;
48975;SDS011;34791;52.752;8.346;2022-12-18T05:20:21;32.87;;;13.87;;
48975;SDS011;34791;52.752;8.346;2022-12-18T05:22:47;38.73;;;15.33;;
48975;SDS011;34791;52.752;8.346;2022-12-18T05:25:12;38.97;;;15.80;;
48975;SDS011;34791;52.752;8.346;2022-12-18T05:27:38;36.37;;;14.80;;
48975;SDS011;34791;52.752;8.346;2022-12-18T05:30:03;33.57;;;14.60;;
48975;SDS011;34791;52.752;8.346;2022-12-18T05:32:29;34.63;;;15.30;;
48975;SDS011;34791;52.752;8.346;2022-12-18T05:34:54;41.43;;;15.63;;
48975;SDS011;34791;52.752;8.346;2022-12-18T05:37:22;36.83;;;16.13;;
48975;SDS011;34791;52.752;8.346;2022-12-18T05:39:47;40.37;;;15.20;;
48975;SDS011;34791;52.752;8.346;2022-12-18T05:42:13;38.17;;;14.73;;
48975;SDS011;34791;52.752;8.346;2022-12-18T05:44:38;34.80;;;15.57;;
48975;SDS011;34791;52.752;8.346;2022-12-18T05:47:03;34.03;;;14.60;;
48975;SDS011;34791;52.752;8.346;2022-12-18T05:49:29;35.57;;;14.83;;
48975;SDS011;34791;52.752;8.346;2022-12-18T05:51:54;34.70;;;13.90;;
48975;SDS011;34791;52.752;8.346;2022-12-18T05:54:19;33.67;;;13.73;;
48975;SDS011;34791;52.752;8.346;2022-12-18T05:56:45;30.53;;;13.40;;
48975;SDS011;34791;52.752;8.346;2022-12-18T05:59:10;33.80;;;13.13;;
48975;SDS011;34791;52.752;8.346;2022-12-18T06:01:35;38.23;;;14.37;;
48975;SDS011;34791;52.752;8.346;2022-12-18T06:04:01;35.93;;;14.13;;
48975;SDS011;34791;52.752;8.346;2022-12-18T06:06:27;32.27;;;12.77;;
48975;SDS011;34791;52.752;8.346;2022-12-18T06:08:53;33.77;;;12.73;;
48975;SDS011;34791;52.752;8.346;2022-12-18T06:11:21;32.57;;;12.67;;
48975;SDS011;34791;52.752;8.346;2022-12-18T06:13:51;32.23;;;13.80;;
48975;SDS011;34791;52.752;8.346;2022-12-18T06:16:18;24.93;;;11.37;;
48975;SDS011;34791;52.752;8.346;2022-12-18T06:18:44;29.90;;;12.20;;
48975;SDS011;34791;52.752;8.346;2022-12-18T06:21:09;29.43;;;12.80;;
48975;SDS011;34791;52.752;8.346;2022-12-18T06:23:34;31.23;;;13.57;;
48975;SDS011;34791;52.752;8.346;2022-12-18T06:26:04;28.53;;;11.63;;
48975;SDS011;34791;52.752;8.346;2022-12-18T06:28:31;29.33;;;11.95;;
48975;SDS011;34791;52.752;8.346;2022-12-18T06:30:56;35.03;;;13.37;;
48975;SDS011;34791;52.752;8.346;2022-12-18T06:33:22;29.17;;;13.13;;
48975;SDS011;34791;52.752;8.346;2022-12-18T06:35:51;28.33;;;13.53;;
48975;SDS011;34791;52.752;8.346;2022-12-18T06:38:17;27.23;;;12.17;;
48975;SDS011;34791;52.752;8.346;2022-12-18T06:40:42;35.97;;;13.97;;
48975;SDS011;34791;52.752;8.346;2022-12-18T06:43:07;29.47;;;12.80;;
48975;SDS011;34791;52.752;8.346;2022-12-18T06:45:33;32.90;;;13.70;;
48975;SDS011;34791;52.752;8.346;2022-12-18T06:47:59;29.80;;;13.03;;
48975;SDS011;34791;52.752;8.346;2022-12-18T06:50:24;29.63;;;11.60;;
48975;SDS011;34791;52.752;8.346;2022-12-18T06:52:49;31.13;;;12.73;;
48975;SDS011;34791;52.752;8.346;2022-12-18T06:55:15;30.80;;;13.80;;
48975;SDS011;34791;52.752;8.346;2022-12-18T06:57:40;33.67;;;13.37;;
48975;SDS011;34791;52.752;8.346;2022-12-18T07:00:06;37.80;;;14.73;;
48975;SDS011;34791;52.752;8.346;2022-12-18T07:02:32;32.17;;;14.53;;
48975;SDS011;34791;52.752;8.346;2022-12-18T07:04:58;32.03;;;15.10;;
48975;SDS011;34791;52.752;8.346;2022-12-18T07:07:24;37.13;;;16.13;;
48975;SDS011;34791;52.752;8.346;2022-12-18T07:09:50;39.00;;;15.00;;
48975;SDS011;34791;52.752;8.346;2022-12-18T07:12:16;31.63;;;13.10;;
48975;SDS011;34791;52.752;8.346;2022-12-18T07:14:41;31.27;;;12.47;;
48975;SDS011;34791;52.752;8.346;2022-12-18T07:17:06;36.20;;;11.77;;
48975;SDS011;34791;52.752;8.346;2022-12-18T07:19:32;30.77;;;12.37;;
48975;SDS011;34791;52.752;8.346;2022-12-18T07:21:58;28.37;;;11.40;;
48975;SDS011;34791;52.752;8.346;2022-12-18T07:24:23;30.07;;;12.17;;
48975;SDS011;34791;52.752;8.346;2022-12-18T07:26:49;31.40;;;11.57;;
48975;SDS011;34791;52.752;8.346;2022-12-18T07:29:14;28.60;;;11.70;;
48975;SDS011;34791;52.752;8.346;2022-12-18T07:31:40;24.37;;;11.20;;
48975;SDS011;34791;52.752;8.346;2022-12-18T07:34:05;28.80;;;12.30;;
48975;SDS011;34791;52.752;8.346;2022-12-18T07:36:35;33.53;;;15.00;;
48975;SDS011;34791;52.752;8.346;2022-12-18T07:39:01;35.10;;;13.80;;
48975;SDS011;34791;52.752;8.346;2022-12-18T07:41:26;29.17;;;12.70;;
48975;SDS011;34791;52.752;8.346;2022-12-18T07:43:51;29.17;;;11.57;;
48975;SDS011;34791;52.752;8.346;2022-12-18T07:46:17;28.30;;;12.80;;
48975;SDS011;34791;52.752;8.346;2022-12-18T07:48:43;31.63;;;12.80;;
48975;SDS011;34791;52.752;8.346;2022-12-18T07:51:09;30.20;;;11.53;;
48975;SDS011;34791;52.752;8.346;2022-12-18T07:53:37;26.97;;;10.63;;
48975;SDS011;34791;52.752;8.346;2022-12-18T07:56:04;26.57;;;11.50;;
48975;SDS011;34791;52.752;8.346;2022-12-18T07:58:32;29.40;;;12.87;;
48975;SDS011;34791;52.752;8.346;2022-12-18T08:03:29;30.25;;;14.68;;
48975;SDS011;34791;52.752;8.346;2022-12-18T08:05:58;33.57;;;12.63;;
48975;SDS011;34791;52.752;8.346;2022-12-18T08:08:24;32.93;;;15.30;;
48975;SDS011;34791;52.752;8.346;2022-12-18T08:10:49;30.53;;;14.13;;
48975;SDS011;34791;52.752;8.346;2022-12-18T08:13:15;28.37;;;11.93;;
48975;SDS011;34791;52.752;8.346;2022-12-18T08:15:40;28.17;;;12.70;;
48975;SDS011;34791;52.752;8.346;2022-12-18T08:18:06;29.37;;;11.37;;
48975;SDS011;34791;52.752;8.346;2022-12-18T08:20:31;30.67;;;12.53;;
48975;SDS011;34791;52.752;8.346;2022-12-18T08:22:56;27.27;;;11.83;;
48975;SDS011;34791;52.752;8.346;2022-12-18T08:25:23;25.17;;;11.90;;
48975;SDS011;34791;52.752;8.346;2022-12-18T08:27:48;25.63;;;11.50;;
48975;SDS011;34791;52.752;8.346;2022-12-18T08:30:13;26.13;;;11.67;;
48975;SDS011;34791;52.752;8.346;2022-12-18T08:32:39;22.17;;;9.87;;
48975;SDS011;34791;52.752;8.346;2022-12-18T08:35:04;25.43;;;10.73;;
48975;SDS011;34791;52.752;8.346;2022-12-18T08:37:30;25.60;;;11.47;;
48975;SDS011;34791;52.752;8.346;2022-12-18T08:39:55;29.77;;;12.23;;
48975;SDS011;34791;52.752;8.346;2022-12-18T08:42:21;21.43;;;10.53;;
48975;SDS011;34791;52.752;8.346;2022-12-18T08:45:05;21.70;;;9.63;;
48975;SDS011;34791;52.752;8.346;2022-12-18T08:47:31;22.93;;;10.50;;
48975;SDS011;34791;52.752;8.346;2022-12-18T08:49:56;16.87;;;7.40;;
48975;SDS011;34791;52.752;8.346;2022-12-18T08:52:21;19.67;;;9.03;;
48975;SDS011;34791;52.752;8.346;2022-12-18T08:54:47;34.00;;;12.77;;
48975;SDS011;34791;52.752;8.346;2022-12-18T08:57:12;22.83;;;10.60;;
48975;SDS011;34791;52.752;8.346;2022-12-18T08:59:37;22.30;;;10.47;;
48975;SDS011;34791;52.752;8.346;2022-12-18T09:02:03;21.60;;;10.50;;
48975;SDS011;34791;52.752;8.346;2022-12-18T09:04:28;24.17;;;9.67;;
48975;SDS011;34791;52.752;8.346;2022-12-18T09:06:55;26.63;;;10.43;;
48975;SDS011;34791;52.752;8.346;2022-12-18T09:09:20;21.80;;;9.97;;
48975;SDS011;34791;52.752;8.346;2022-12-18T09:11:46;25.00;;;11.43;;
48975;SDS011;34791;52.752;8.346;2022-12-18T09:14:11;24.90;;;10.33;;
48975;SDS011;34791;52.752;8.346;2022-12-18T09:16:36;22.23;;;8.77;;
48975;SDS011;34791;52.752;8.346;2022-12-18T09:19:03;22.30;;;10.43;;
48975;SDS011;34791;52.752;8.346;2022-12-18T09:21:31;24.97;;;10.43;;
48975;SDS011;34791;52.752;8.346;2022-12-18T09:23:58;22.23;;;9.63;;
48975;SDS011;34791;52.752;8.346;2022-12-18T09:26:24;25.53;;;11.30;;
48975;SDS011;34791;52.752;8.346;2022-12-18T09:28:50;21.73;;;9.43;;
48975;SDS011;34791;52.752;8.346;2022-12-18T09:31:16;17.37;;;8.47;;
48975;SDS011;34791;52.752;8.346;2022-12-18T09:33:43;21.40;;;9.43;;
48975;SDS011;34791;52.752;8.346;2022-12-18T09:36:10;25.30;;;10.03;;
48975;SDS011;34791;52.752;8.346;2022-12-18T09:38:37;19.87;;;9.27;;
48975;SDS011;34791;52.752;8.346;2022-12-18T09:49:33;23.52;;;10.40;;
48975;SDS011;34791;52.752;8.346;2022-12-18T09:52:09;22.73;;;9.87;;
48975;SDS011;34791;52.752;8.346;2022-12-18T09:54:50;15.50;;;7.63;;
48975;SDS011;34791;52.752;8.346;2022-12-18T09:57:20;20.33;;;7.37;;
48975;SDS011;34791;52.752;8.346;2022-12-18T09:59:55;19.97;;;9.10;;
48975;SDS011;34791;52.752;8.346;2022-12-18T10:02:24;9.43;;;4.60;;
48975;SDS011;34791;52.752;8.346;2022-12-18T10:05:01;17.37;;;7.73;;
48975;SDS011;34791;52.752;8.346;2022-12-18T10:10:48;18.17;;;7.67;;
48975;SDS011;34791;52.752;8.346;2022-12-18T10:19:34;17.87;;;8.03;;
48975;SDS011;34791;52.752;8.346;2022-12-18T10:24:58;13.87;;;6.37;;
48975;SDS011;34791;52.752;8.346;2022-12-18T10:27:30;13.10;;;5.93;;
48975;SDS011;34791;52.752;8.346;2022-12-18T10:29:56;16.10;;;7.23;;
48975;SDS011;34791;52.752;8.346;2022-12-18T10:32:23;10.93;;;3.87;;
48975;SDS011;34791;52.752;8.346;2022-12-18T10:34:52;7.77;;;4.20;;
48975;SDS011;34791;52.752;8.346;2022-12-18T10:37:21;7.03;;;3.30;;
48975;SDS011;34791;52.752;8.346;2022-12-18T10:40:04;9.33;;;3.83;;
48975;SDS011;34791;52.752;8.346;2022-12-18T10:42:33;11.93;;;5.23;;
48975;SDS011;34791;52.752;8.346;2022-12-18T10:45:09;15.83;;;7.53;;
48975;SDS011;34791;52.752;8.346;2022-12-18T10:47:41;16.27;;;6.73;;
48975;SDS011;34791;52.752;8.346;2022-12-18T10:50:18;18.77;;;9.70;;
48975;SDS011;34791;52.752;8.346;2022-12-18T10:53:03;14.10;;;6.97;;
48975;SDS011;34791;52.752;8.346;2022-12-18T10:55:39;20.33;;;8.53;;
48975;SDS011;34791;52.752;8.346;2022-12-18T11:03:41;8.77;;;4.00;;
48975;SDS011;34791;52.752;8.346;2022-12-18T11:06:15;12.98;;;4.65;;
48975;SDS011;34791;52.752;8.346;2022-12-18T11:09:33;18.20;;;7.80;;
48975;SDS011;34791;52.752;8.346;2022-12-18T11:11:52;13.23;;;5.53;;
48975;SDS011;34791;52.752;8.346;2022-12-18T11:14:33;10.03;;;4.70;;
48975;SDS011;34791;52.752;8.346;2022-12-18T11:17:16;16.47;;;7.37;;
48975;SDS011;34791;52.752;8.346;2022-12-18T11:19:57;8.90;;;4.23;;
48975;SDS011;34791;52.752;8.346;2022-12-18T11:22:27;13.93;;;6.80;;
48975;SDS011;34791;52.752;8.346;2022-12-18T11:24:58;7.93;;;3.97;;
48975;SDS011;34791;52.752;8.346;2022-12-18T11:27:24;7.40;;;3.63;;
48975;SDS011;34791;52.752;8.346;2022-12-18T11:29:51;9.87;;;4.17;;
48975;SDS011;34791;52.752;8.346;2022-12-18T11:32:54;8.83;;;4.30;;
48975;SDS011;34791;52.752;8.346;2022-12-18T11:35:30;8.43;;;4.30;;
48975;SDS011;34791;52.752;8.346;2022-12-18T11:37:58;9.83;;;5.37;;
48975;SDS011;34791;52.752;8.346;2022-12-18T11:40:33;13.20;;;6.67;;
48975;SDS011;34791;52.752;8.346;2022-12-18T11:45:49;13.17;;;6.03;;
48975;SDS011;34791;52.752;8.346;2022-12-18T11:48:20;14.63;;;6.60;;
48975;SDS011;34791;52.752;8.346;2022-12-18T11:50:53;13.90;;;6.37;;
48975;SDS011;34791;52.752;8.346;2022-12-18T11:53:21;14.27;;;5.27;;
48975;SDS011;34791;52.752;8.346;2022-12-18T11:55:55;17.60;;;7.03;;
48975;SDS011;34791;52.752;8.346;2022-12-18T12:18:14;8.32;;;4.32;;
48975;SDS011;34791;52.752;8.346;2022-12-18T12:38:25;13.93;;;5.57;;
48975;SDS011;34791;52.752;8.346;2022-12-18T12:40:58;13.65;;;6.00;;
48975;SDS011;34791;52.752;8.346;2022-12-18T12:43:31;12.57;;;5.95;;
48975;SDS011;34791;52.752;8.346;2022-12-18T12:46:17;9.17;;;3.90;;
48975;SDS011;34791;52.752;8.346;2022-12-18T12:48:49;9.20;;;4.70;;
48975;SDS011;34791;52.752;8.346;2022-12-18T12:51:25;8.20;;;4.20;;
48975;SDS011;34791;52.752;8.346;2022-12-18T12:53:58;12.47;;;5.37;;
48975;SDS011;34791;52.752;8.346;2022-12-18T12:56:27;5.50;;;3.17;;
48975;SDS011;34791;52.752;8.346;2022-12-18T12:59:15;8.03;;;3.03;;
48975;SDS011;34791;52.752;8.346;2022-12-18T13:10:47;10.13;;;3.23;;
48975;SDS011;34791;52.752;8.346;2022-12-18T13:13:13;6.57;;;3.67;;
48975;SDS011;34791;52.752;8.346;2022-12-18T13:15:45;8.93;;;3.43;;
48975;SDS011;34791;52.752;8.346;2022-12-18T13:18:16;10.85;;;4.50;;
48975;SDS011;34791;52.752;8.346;2022-12-18T13:23:35;8.00;;;3.47;;
48975;SDS011;34791;52.752;8.346;2022-12-18T13:31:07;8.67;;;4.00;;
48975;SDS011;34791;52.752;8.346;2022-12-18T13:36:02;6.37;;;3.73;;
48975;SDS011;34791;52.752;8.346;2022-12-18T13:38:38;7.10;;;3.87;;
48975;SDS011;34791;52.752;8.346;2022-12-18T13:43:33;7.47;;;4.00;;
48975;SDS011;34791;52.752;8.346;2022-12-18T13:46:18;6.77;;;3.57;;
48975;SDS011;34791;52.752;8.346;2022-12-18T13:48:50;7.78;;;3.15;;
48975;SDS011;34791;52.752;8.346;2022-12-18T13:51:18;8.50;;;3.57;;
48975;SDS011;34791;52.752;8.346;2022-12-18T13:53:49;6.03;;;3.07;;
48975;SDS011;34791;52.752;8.346;2022-12-18T13:56:21;4.63;;;2.53;;
48975;SDS011;34791;52.752;8.346;2022-12-18T14:01:52;9.03;;;3.67;;
48975;SDS011;34791;52.752;8.346;2022-12-18T14:06:50;7.70;;;2.87;;
48975;SDS011;34791;52.752;8.346;2022-12-18T14:09:19;8.87;;;3.70;;
48975;SDS011;34791;52.752;8.346;2022-12-18T14:11:50;10.17;;;4.83;;
48975;SDS011;34791;52.752;8.346;2022-12-18T14:14:16;12.43;;;5.07;;
48975;SDS011;34791;52.752;8.346;2022-12-18T14:16:43;7.73;;;4.33;;
48975;SDS011;34791;52.752;8.346;2022-12-18T14:19:19;5.80;;;3.30;;
48975;SDS011;34791;52.752;8.346;2022-12-18T14:21:47;4.40;;;2.33;;
48975;SDS011;34791;52.752;8.346;2022-12-18T14:24:15;8.23;;;4.77;;
48975;SDS011;34791;52.752;8.346;2022-12-18T14:26:41;5.27;;;2.50;;
48975;SDS011;34791;52.752;8.346;2022-12-18T14:34:41;12.20;;;3.83;;
48975;SDS011;34791;52.752;8.346;2022-12-18T14:37:09;6.70;;;3.60;;
48975;SDS011;34791;52.752;8.346;2022-12-18T14:39:36;10.27;;;4.60;;
48975;SDS011;34791;52.752;8.346;2022-12-18T14:42:01;7.90;;;3.40;;
48975;SDS011;34791;52.752;8.346;2022-12-18T14:44:26;5.90;;;3.30;;
48975;SDS011;34791;52.752;8.346;2022-12-18T14:46:52;7.20;;;3.27;;
48975;SDS011;34791;52.752;8.346;2022-12-18T14:49:25;11.43;;;5.20;;
48975;SDS011;34791;52.752;8.346;2022-12-18T14:51:57;7.07;;;3.37;;
48975;SDS011;34791;52.752;8.346;2022-12-18T14:54:25;5.83;;;2.87;;
48975;SDS011;34791;52.752;8.346;2022-12-18T14:59:29;5.60;;;2.63;;
48975;SDS011;34791;52.752;8.346;2022-12-18T15:05:03;8.53;;;3.97;;
48975;SDS011;34791;52.752;8.346;2022-12-18T15:07:44;10.33;;;5.00;;
48975;SDS011;34791;52.752;8.346;2022-12-18T15:10:15;9.63;;;4.13;;
48975;SDS011;34791;52.752;8.346;2022-12-18T15:12:49;8.07;;;4.27;;
48975;SDS011;34791;52.752;8.346;2022-12-18T15:18:03;4.60;;;2.65;;
48975;SDS011;34791;52.752;8.346;2022-12-18T15:20:41;6.97;;;3.63;;
48975;SDS011;34791;52.752;8.346;2022-12-18T15:23:28;6.40;;;2.77;;
48975;SDS011;34791;52.752;8.346;2022-12-18T15:26:00;7.50;;;4.00;;
48975;SDS011;34791;52.752;8.346;2022-12-18T15:28:36;4.40;;;2.67;;
48975;SDS011;34791;52.752;8.346;2022-12-18T15:33:37;137.50;;;8.50;;
48975;SDS011;34791;52.752;8.346;2022-12-18T15:36:24;7.83;;;3.37;;
48975;SDS011;34791;52.752;8.346;2022-12-18T15:38:54;190.77;;;10.63;;
48975;SDS011;34791;52.752;8.346;2022-12-18T15:41:22;5.73;;;2.60;;
48975;SDS011;34791;52.752;8.346;2022-12-18T15:43:54;9.83;;;3.50;;
48975;SDS011;34791;52.752;8.346;2022-12-18T15:46:32;7.27;;;2.60;;
48975;SDS011;34791;52.752;8.346;2022-12-18T15:48:58;7.43;;;3.43;;
48975;SDS011;34791;52.752;8.346;2022-12-18T15:51:24;8.37;;;3.67;;
48975;SDS011;34791;52.752;8.346;2022-12-18T15:53:54;5.03;;;2.00;;
48975;SDS011;34791;52.752;8.346;2022-12-18T15:56:21;5.10;;;2.20;;
48975;SDS011;34791;52.752;8.346;2022-12-18T15:59:10;7.13;;;3.07;;
48975;SDS011;34791;52.752;8.346;2022-12-18T16:01:41;70.73;;;5.60;;
48975;SDS011;34791;52.752;8.346;2022-12-18T16:04:12;4.53;;;2.53;;
48975;SDS011;34791;52.752;8.346;2022-12-18T16:06:40;5.68;;;2.90;;
48975;SDS011;34791;52.752;8.346;2022-12-18T16:09:06;9.27;;;4.67;;
48975;SDS011;34791;52.752;8.346;2022-12-18T16:11:32;5.27;;;2.50;;
48975;SDS011;34791;52.752;8.346;2022-12-18T16:14:18;8.70;;;2.93;;
48975;SDS011;34791;52.752;8.346;2022-12-18T16:16:53;4.83;;;2.03;;
48975;SDS011;34791;52.752;8.346;2022-12-18T16:19:20;5.07;;;2.70;;
48975;SDS011;34791;52.752;8.346;2022-12-18T16:21:46;6.33;;;2.87;;
48975;SDS011;34791;52.752;8.346;2022-12-18T16:24:22;6.87;;;3.33;;
48975;SDS011;34791;52.752;8.346;2022-12-18T16:26:49;8.37;;;3.63;;
48975;SDS011;34791;52.752;8.346;2022-12-18T16:29:16;11.50;;;4.53;;
48975;SDS011;34791;52.752;8.346;2022-12-18T16:31:43;9.90;;;3.50;;
48975;SDS011;34791;52.752;8.346;2022-12-18T16:34:31;7.77;;;2.23;;
48975;SDS011;34791;52.752;8.346;2022-12-18T16:37:00;3.83;;;2.03;;
48975;SDS011;34791;52.752;8.346;2022-12-18T16:39:27;7.05;;;2.60;;
48975;SDS011;34791;52.752;8.346;2022-12-18T16:41:53;6.37;;;3.27;;
48975;SDS011;34791;52.752;8.346;2022-12-18T16:47:08;4.47;;;2.13;;
48975;SDS011;34791;52.752;8.346;2022-12-18T16:49:33;5.13;;;2.60;;
48975;SDS011;34791;52.752;8.346;2022-12-18T16:51:59;4.30;;;2.33;;
48975;SDS011;34791;52.752;8.346;2022-12-18T16:54:27;6.17;;;3.20;;
48975;SDS011;34791;52.752;8.346;2022-12-18T16:56:55;4.20;;;2.37;;
48975;SDS011;34791;52.752;8.346;2022-12-18T16:59:21;6.00;;;2.57;;
48975;SDS011;34791;52.752;8.346;2022-12-18T17:01:46;6.37;;;3.13;;
48975;SDS011;34791;52.752;8.346;2022-12-18T17:04:12;5.00;;;2.50;;
48975;SDS011;34791;52.752;8.346;2022-12-18T17:06:39;5.40;;;2.57;;